Time;durP1;ratioP1;P1;durP2;ratioP2;P2;SDS_P1;SDS_P2;PMS_P1;PMS_P2;Temp;Humidity;BMP_temperature;BMP_pressure;BME280_temperature;BME280_humidity;BME280_pressure;Samples;Min_cycle;Max_cycle;Signal;HPM_P1;HPM_P2
2023/02/21 02:16:38;;;;;;;7.73;4.97;;;9.30;57.40;;;;;;5031529;28;20969;-48
2023/02/21 02:19:37;;;;;;;5.87;4.60;;;9.30;57.50;;;;;;5032654;28;20523;-49
2023/02/21 02:22:15;;;;;;;8.33;5.00;;;9.20;57.30;;;;;;5032553;28;20954;-48
2023/02/21 02:24:55;;;;;;;6.60;4.40;;;9.30;57.70;;;;;;5032595;28;20439;-50
2023/02/21 02:27:39;;;;;;;7.93;4.50;;;9.50;57.20;;;;;;5032504;28;20435;-48
2023/02/21 02:30:14;;;;;;;6.03;4.00;;;9.50;56.90;;;;;;5031985;28;20830;-48
2023/02/21 02:33:01;;;;;;;5.83;4.87;;;9.50;56.50;;;;;;5035619;28;20431;-50
2023/02/21 02:35:45;;;;;;;5.87;5.00;;;9.50;56.90;;;;;;5037017;28;20424;-48
2023/02/21 02:38:30;;;;;;;4.60;3.93;;;9.30;57.20;;;;;;5032286;28;20443;-48
2023/02/21 02:41:16;;;;;;;6.57;4.60;;;9.40;57.10;;;;;;5030226;28;20942;-48
2023/02/21 02:44:01;;;;;;;6.63;4.63;;;9.50;56.90;;;;;;5032282;28;20612;-49
2023/02/21 02:46:30;;;;;;;5.13;4.10;;;9.60;56.50;;;;;;5032240;28;20473;-50
2023/02/21 02:49:20;;;;;;;5.03;4.10;;;9.50;56.30;;;;;;5031907;28;20523;-48
2023/02/21 02:51:47;;;;;;;5.70;4.30;;;9.50;56.80;;;;;;5031952;28;20424;-48
2023/02/21 02:54:13;;;;;;;5.13;4.10;;;9.40;56.40;;;;;;5032040;28;20483;-48
2023/02/21 02:56:38;;;;;;;5.83;4.30;;;9.50;56.40;;;;;;5031888;28;20778;-48
2023/02/21 02:59:11;;;;;;;9.17;4.63;;;9.50;56.20;;;;;;5031883;28;20631;-48
2023/02/21 03:01:48;;;;;;;6.00;4.23;;;9.40;56.00;;;;;;5031754;28;20205;-48
2023/02/21 03:04:48;;;;;;;15.77;4.73;;;9.20;56.50;;;;;;5031845;28;20796;-49
2023/02/21 03:07:33;;;;;;;4.67;3.97;;;9.20;56.80;;;;;;5020557;28;20797;-48
2023/02/21 03:10:26;;;;;;;8.10;4.90;;;9.20;56.70;;;;;;5031373;28;20923;-48
2023/02/21 03:13:44;;;;;;;6.40;4.20;;;9.10;56.60;;;;;;5030582;28;20815;-48
2023/02/21 03:16:39;;;;;;;6.37;4.20;;;9.00;57.10;;;;;;5015401;28;20454;-49
2023/02/21 03:19:16;;;;;;;4.73;4.33;;;9.10;57.10;;;;;;5030442;28;20455;-49
2023/02/21 03:21:51;;;;;;;4.67;4.17;;;9.10;56.80;;;;;;5031623;28;20439;-48
2023/02/21 03:24:18;;;;;;;6.60;5.10;;;9.10;56.80;;;;;;5031399;28;20427;-51
2023/02/21 03:26:49;;;;;;;6.50;4.80;;;9.00;56.90;;;;;;5031410;28;20551;-48
2023/02/21 03:29:18;;;;;;;4.27;3.87;;;8.90;57.60;;;;;;5030934;28;20872;-48
2023/02/21 03:31:48;;;;;;;4.47;4.07;;;8.90;57.70;;;;;;5031184;28;20837;-49
2023/02/21 03:34:14;;;;;;;4.17;3.77;;;9.00;57.50;;;;;;5040658;28;20480;-48
2023/02/21 03:36:40;;;;;;;6.20;3.67;;;9.10;57.10;;;;;;5031155;28;20501;-53
2023/02/21 03:39:06;;;;;;;5.20;3.60;;;9.20;56.90;;;;;;5030918;28;20205;-52
2023/02/21 03:41:31;;;;;;;6.47;4.30;;;9.10;57.00;;;;;;5031506;28;20428;-53
2023/02/21 03:43:57;;;;;;;4.90;3.80;;;8.70;57.90;;;;;;5030892;28;20212;-51
2023/02/21 03:46:23;;;;;;;6.07;4.30;;;8.60;58.40;;;;;;5031246;28;20189;-48
2023/02/21 03:48:48;;;;;;;6.33;4.13;;;8.70;58.40;;;;;;5031118;28;20204;-52
2023/02/21 03:51:14;;;;;;;5.10;4.07;;;8.70;57.80;;;;;;5029218;28;20664;-51
2023/02/21 03:53:39;;;;;;;6.10;3.93;;;8.40;58.30;;;;;;5031045;28;20735;-52
2023/02/21 03:56:05;;;;;;;4.10;3.30;;;8.30;59.00;;;;;;5030677;28;20526;-52
2023/02/21 03:58:31;;;;;;;5.70;3.67;;;8.30;58.90;;;;;;5030740;28;20196;-52
2023/02/21 04:00:56;;;;;;;6.43;4.57;;;8.30;58.70;;;;;;5029802;28;20428;-53
2023/02/21 04:03:22;;;;;;;6.60;3.53;;;8.30;58.90;;;;;;5029899;28;20334;-52
2023/02/21 04:05:48;;;;;;;4.50;3.47;;;8.40;58.60;;;;;;5030789;28;20197;-52
2023/02/21 04:08:14;;;;;;;4.63;3.60;;;8.30;58.60;;;;;;5030588;28;20595;-51
2023/02/21 04:10:39;;;;;;;6.60;4.90;;;8.40;58.70;;;;;;5030116;28;20204;-52
2023/02/21 04:13:06;;;;;;;7.13;4.10;;;8.30;58.60;;;;;;5030375;28;20235;-52
2023/02/21 04:15:32;;;;;;;5.00;3.80;;;8.30;58.70;;;;;;5030535;28;20653;-51
2023/02/21 04:17:58;;;;;;;4.17;3.70;;;8.30;58.70;;;;;;5030324;28;20427;-52
2023/02/21 04:20:23;;;;;;;5.63;3.97;;;8.40;58.70;;;;;;5030115;28;20424;-52
2023/02/21 04:22:49;;;;;;;5.07;4.03;;;8.40;58.50;;;;;;5030097;28;20573;-51
2023/02/21 04:25:14;;;;;;;4.83;3.93;;;8.60;58.30;;;;;;5030362;28;20208;-51
2023/02/21 04:27:40;;;;;;;4.90;4.07;;;8.70;58.00;;;;;;5030103;28;20236;-49
2023/02/21 04:30:06;;;;;;;4.90;3.33;;;8.70;57.50;;;;;;5028232;28;20236;-52
2023/02/21 04:32:32;;;;;;;7.07;3.83;;;8.80;57.50;;;;;;5032020;28;20204;-51
2023/02/21 04:34:57;;;;;;;7.70;4.60;;;8.80;57.20;;;;;;5038784;28;20813;-52
2023/02/21 04:37:23;;;;;;;5.13;3.83;;;8.80;57.10;;;;;;5030429;28;20196;-49
2023/02/21 04:39:49;;;;;;;5.27;3.97;;;8.70;57.50;;;;;;5029675;28;20657;-52
2023/02/21 04:42:14;;;;;;;7.50;4.60;;;8.70;57.40;;;;;;5030064;28;20203;-52
2023/02/21 04:44:40;;;;;;;5.20;3.77;;;8.70;57.30;;;;;;5030335;28;20452;-52
2023/02/21 04:47:06;;;;;;;5.97;4.37;;;8.70;57.40;;;;;;5030017;28;20204;-53
2023/02/21 04:49:31;;;;;;;4.50;3.97;;;8.80;57.40;;;;;;5029596;28;20278;-49
2023/02/21 04:51:57;;;;;;;6.57;4.60;;;8.70;57.10;;;;;;5029680;28;20641;-51
2023/02/21 04:54:22;;;;;;;8.00;4.63;;;8.50;57.80;;;;;;5029823;28;20225;-52
2023/02/21 04:56:48;;;;;;;5.77;4.27;;;8.50;58.10;;;;;;5028331;28;20197;-52
2023/02/21 04:59:14;;;;;;;6.03;4.67;;;8.50;57.80;;;;;;5029484;28;20197;-52
2023/02/21 05:01:39;;;;;;;4.30;3.70;;;8.20;57.90;;;;;;5029998;28;20193;-49
2023/02/21 05:04:06;;;;;;;5.30;3.90;;;8.10;58.50;;;;;;5029840;28;20263;-52
2023/02/21 05:06:32;;;;;;;5.50;3.73;;;8.00;58.60;;;;;;5029759;28;20620;-52
2023/02/21 05:08:58;;;;;;;4.63;3.60;;;8.00;58.90;;;;;;5029414;28;20624;-51
2023/02/21 05:11:24;;;;;;;3.93;3.60;;;7.90;59.00;;;;;;5029730;28;20432;-52
2023/02/21 05:13:51;;;;;;;3.97;3.57;;;7.80;59.10;;;;;;5029639;28;20826;-53
2023/02/21 05:16:18;;;;;;;5.53;4.57;;;7.90;59.00;;;;;;5029599;28;20423;-49
2023/02/21 05:18:45;;;;;;;4.57;4.00;;;7.90;58.60;;;;;;5029676;28;20515;-52
2023/02/21 05:21:12;;;;;;;5.90;3.87;;;7.90;58.70;;;;;;5029433;28;20482;-51
2023/02/21 05:23:39;;;;;;;12.50;5.03;;;8.10;58.50;;;;;;5028197;28;20432;-52
2023/02/21 05:26:12;;;;;;;7.77;3.97;;;8.20;58.30;;;;;;5029781;28;20428;-48
2023/02/21 05:28:39;;;;;;;6.50;4.90;;;8.20;57.70;;;;;;5029721;28;20424;-49
2023/02/21 05:31:05;;;;;;;7.20;5.73;;;8.10;57.80;;;;;;5029286;28;20871;-51
2023/02/21 05:33:31;;;;;;;7.97;5.10;;;8.10;58.40;;;;;;5040122;28;20540;-51
2023/02/21 05:35:57;;;;;;;7.10;5.10;;;8.00;58.30;;;;;;5029502;28;20432;-52
2023/02/21 05:38:24;;;;;;;8.97;4.00;;;8.00;58.40;;;;;;5029820;28;20606;-50
2023/02/21 05:40:50;;;;;;;4.23;3.67;;;8.10;58.50;;;;;;5029349;28;20420;-48
2023/02/21 05:43:16;;;;;;;4.67;4.20;;;8.10;58.40;;;;;;5032184;28;20443;-50
2023/02/21 05:45:42;;;;;;;7.03;4.47;;;7.90;58.70;;;;;;5032929;28;20438;-50
2023/02/21 05:48:08;;;;;;;6.10;4.67;;;8.00;59.10;;;;;;5033360;28;20436;-52
2023/02/21 05:50:33;;;;;;;5.53;4.17;;;7.80;59.20;;;;;;5031275;28;20185;-53
2023/02/21 05:53:00;;;;;;;5.47;4.70;;;7.80;59.40;;;;;;5032833;28;20294;-51
2023/02/21 05:55:26;;;;;;;8.10;5.10;;;7.40;60.30;;;;;;5032942;28;20226;-51
2023/02/21 05:57:52;;;;;;;7.27;4.67;;;7.20;61.20;;;;;;5033114;28;20423;-51
2023/02/21 06:00:19;;;;;;;5.00;3.70;;;7.00;61.50;;;;;;5032806;28;20432;-50
2023/02/21 06:02:45;;;;;;;6.73;4.80;;;6.90;62.20;;;;;;5032808;28;20450;-49
2023/02/21 06:05:12;;;;;;;8.30;5.67;;;7.00;62.20;;;;;;5033096;28;20510;-49
2023/02/21 06:07:38;;;;;;;6.07;4.70;;;6.80;62.20;;;;;;5032932;28;20698;-49
2023/02/21 06:10:04;;;;;;;6.07;5.20;;;6.80;62.70;;;;;;5032503;28;20421;-51
2023/02/21 06:12:30;;;;;;;8.43;4.40;;;7.10;62.30;;;;;;5032844;28;20197;-48
2023/02/21 06:14:56;;;;;;;5.20;4.33;;;7.40;61.40;;;;;;5032875;28;20483;-52
2023/02/21 06:17:21;;;;;;;7.83;4.13;;;7.40;60.20;;;;;;5031461;28;20251;-52
2023/02/21 06:19:47;;;;;;;6.40;4.67;;;7.40;60.30;;;;;;5032336;28;20193;-52
2023/02/21 06:22:12;;;;;;;6.20;3.80;;;7.70;60.10;;;;;;5031338;28;20202;-49
2023/02/21 06:24:38;;;;;;;5.93;4.30;;;7.80;59.50;;;;;;5032647;28;20201;-47
2023/02/21 06:27:04;;;;;;;5.70;4.10;;;8.00;59.10;;;;;;5032710;28;20204;-52
2023/02/21 06:29:29;;;;;;;5.90;4.17;;;8.10;58.80;;;;;;5030848;28;20197;-52
2023/02/21 06:31:57;;;;;;;4.30;3.43;;;8.20;58.50;;;;;;5032388;28;20727;-52
2023/02/21 06:34:22;;;;;;;7.50;4.00;;;8.20;58.30;;;;;;5043518;28;20236;-52
2023/02/21 06:36:51;;;;;;;3.97;3.33;;;8.30;58.20;;;;;;5032502;28;20432;-50
2023/02/21 06:39:17;;;;;;;5.83;4.43;;;8.30;58.20;;;;;;5030346;28;20228;-49
2023/02/21 06:41:43;;;;;;;5.07;3.87;;;8.40;58.00;;;;;;5032340;28;20456;-50
2023/02/21 06:44:09;;;;;;;6.37;4.30;;;8.10;58.40;;;;;;5030408;28;20200;-49
2023/02/21 06:46:36;;;;;;;5.50;4.63;;;8.10;58.90;;;;;;5032308;28;20740;-52
2023/02/21 06:49:03;;;;;;;7.27;4.50;;;8.30;58.70;;;;;;5032041;28;20423;-49
2023/02/21 06:51:36;;;;;;;6.97;4.53;;;8.20;58.60;;;;;;5032150;28;20424;-51
2023/02/21 06:54:02;;;;;;;7.07;5.13;;;8.10;58.70;;;;;;5031241;28;20491;-50
2023/02/21 06:56:28;;;;;;;6.27;5.10;;;8.10;59.00;;;;;;5031916;28;20424;-52
2023/02/21 06:58:53;;;;;;;6.60;5.30;;;8.40;58.80;;;;;;5031616;28;20424;-49
2023/02/21 07:01:19;;;;;;;8.87;5.37;;;8.60;58.20;;;;;;5031672;28;20193;-49
2023/02/21 07:03:46;;;;;;;4.30;3.90;;;8.60;57.70;;;;;;5031832;28;20276;-52
2023/02/21 07:06:12;;;;;;;6.47;5.50;;;8.70;57.60;;;;;;5031635;28;20424;-51
2023/02/21 07:08:38;;;;;;;8.77;4.90;;;8.70;57.20;;;;;;5031860;28;20428;-48
2023/02/21 07:11:04;;;;;;;6.40;4.33;;;8.70;57.40;;;;;;5029480;28;20200;-51
2023/02/21 07:13:30;;;;;;;5.87;4.47;;;8.70;57.20;;;;;;5031402;28;20711;-52
2023/02/21 07:15:56;;;;;;;7.47;4.50;;;8.80;57.70;;;;;;5031463;28;20423;-49
2023/02/21 07:18:21;;;;;;;9.30;4.27;;;8.70;57.30;;;;;;5031814;28;20439;-48
2023/02/21 07:20:48;;;;;;;5.37;4.87;;;8.70;57.60;;;;;;5031295;28;20225;-50
2023/02/21 07:23:14;;;;;;;5.97;3.90;;;8.80;57.70;;;;;;5031465;28;20235;-49
2023/02/21 07:25:39;;;;;;;6.10;4.50;;;9.10;57.60;;;;;;5031346;28;20428;-49
2023/02/21 07:28:05;;;;;;;4.67;4.07;;;9.10;57.10;;;;;;5031408;28;20497;-49
2023/02/21 07:30:31;;;;;;;7.33;4.60;;;9.40;57.00;;;;;;5031111;28;20317;-52
2023/02/21 07:32:57;;;;;;;6.87;3.97;;;9.60;56.60;;;;;;5037031;28;20188;-52
2023/02/21 07:35:22;;;;;;;5.20;3.40;;;9.80;56.30;;;;;;5036490;28;20264;-49
2023/02/21 07:37:48;;;;;;;5.07;3.70;;;10.00;55.20;;;;;;5029633;28;20194;-48
2023/02/21 07:40:14;;;;;;;4.83;4.10;;;10.10;55.00;;;;;;5031121;28;20197;-49
2023/02/21 07:42:43;;;;;;;5.20;4.10;;;10.50;54.70;;;;;;5031194;28;20228;-51
2023/02/21 07:45:10;;;;;;;6.20;3.83;;;10.60;54.40;;;;;;5031410;28;20603;-52
2023/02/21 07:47:36;;;;;;;6.33;4.00;;;10.70;53.90;;;;;;5030993;28;20452;-49
2023/02/21 07:50:01;;;;;;;4.33;3.93;;;10.90;53.70;;;;;;5030677;28;20471;-51
2023/02/21 07:52:27;;;;;;;5.50;3.60;;;10.90;53.70;;;;;;5031079;28;20196;-52
2023/02/21 07:54:52;;;;;;;4.87;3.30;;;10.90;54.10;;;;;;5031228;28;20221;-49
2023/02/21 07:57:18;;;;;;;4.23;3.57;;;10.60;54.50;;;;;;5030906;28;20193;-48
2023/02/21 07:59:44;;;;;;;4.30;3.57;;;10.90;54.50;;;;;;5030394;28;20199;-50
2023/02/21 08:02:13;;;;;;;5.60;3.83;;;11.00;53.90;;;;;;5029465;28;20606;-49
2023/02/21 08:04:40;;;;;;;6.60;4.53;;;11.00;53.80;;;;;;5029099;28;20546;-50
2023/02/21 08:07:06;;;;;;;9.60;4.50;;;11.10;53.50;;;;;;5030836;28;20833;-49
2023/02/21 08:09:32;;;;;;;6.00;4.07;;;10.80;54.60;;;;;;5030316;28;20427;-48
2023/02/21 08:11:58;;;;;;;6.20;4.90;;;10.70;54.90;;;;;;5030783;28;20790;-51
2023/02/21 08:14:24;;;;;;;5.90;3.93;;;10.80;54.90;;;;;;5030709;28;20991;-49
2023/02/21 08:16:50;;;;;;;5.60;4.10;;;10.90;55.10;;;;;;5030616;28;20965;-49
2023/02/21 08:19:15;;;;;;;5.10;4.07;;;11.10;54.60;;;;;;5030306;28;20200;-52
2023/02/21 08:21:48;;;;;;;6.27;3.80;;;11.30;53.70;;;;;;5030612;28;20537;-49
2023/02/21 08:24:14;;;;;;;5.33;3.73;;;11.40;53.40;;;;;;5030584;28;20185;-51
2023/02/21 08:26:40;;;;;;;6.20;4.50;;;11.50;53.40;;;;;;5030545;28;20998;-50
2023/02/21 08:29:09;;;;;;;15.60;10.23;;;11.60;52.80;;;;;;5030036;28;20950;-50
2023/02/21 08:31:36;;;;;;;10.90;7.60;;;11.60;52.70;;;;;;5028613;28;20895;-50
2023/02/21 08:34:02;;;;;;;36.87;26.57;;;11.70;52.70;;;;;;5041483;28;20575;-49
2023/02/21 08:36:33;;;;;;;21.13;18.13;;;11.80;52.60;;;;;;5030138;28;20467;-50
2023/02/21 08:39:01;;;;;;;20.87;14.13;;;12.00;52.40;;;;;;5029486;28;20452;-52
2023/02/21 08:41:42;;;;;;;18.00;9.33;;;12.20;51.90;;;;;;5030046;28;20915;-52
2023/02/21 08:44:09;;;;;;;9.03;6.80;;;12.50;51.60;;;;;;5030204;28;20431;-52
2023/02/21 08:46:35;;;;;;;8.20;6.13;;;12.50;51.50;;;;;;5030176;28;20799;-50
2023/02/21 08:49:02;;;;;;;6.77;5.90;;;12.60;51.30;;;;;;5029458;28;20442;-49
2023/02/21 08:51:30;;;;;;;7.63;5.33;;;12.70;52.30;;;;;;5029859;28;20197;-53
2023/02/21 08:53:55;;;;;;;11.30;5.73;;;12.80;51.50;;;;;;5030183;28;20498;-51
2023/02/21 08:56:22;;;;;;;10.17;6.57;;;12.90;50.70;;;;;;5030426;28;20908;-48
2023/02/21 08:58:48;;;;;;;8.83;6.10;;;13.20;50.90;;;;;;5027782;28;20196;-50
2023/02/21 09:01:15;;;;;;;9.53;5.83;;;13.40;50.20;;;;;;5029910;28;20424;-49
2023/02/21 09:03:40;;;;;;;10.30;6.50;;;13.40;50.10;;;;;;5030008;28;20470;-50
2023/02/21 09:06:07;;;;;;;13.93;7.10;;;13.50;50.20;;;;;;5029919;28;20428;-52
2023/02/21 09:08:35;;;;;;;12.50;7.03;;;13.70;49.70;;;;;;5029511;28;20203;-52
2023/02/21 09:11:01;;;;;;;9.57;6.20;;;13.80;49.70;;;;;;5029591;28;20432;-50
2023/02/21 09:13:28;;;;;;;9.23;6.47;;;14.00;49.30;;;;;;5029840;28;20506;-49
2023/02/21 09:15:54;;;;;;;9.50;5.43;;;13.90;49.10;;;;;;5029756;28;20464;-50
2023/02/21 09:18:21;;;;;;;6.90;5.87;;;13.90;49.00;;;;;;5031400;28;20482;-49
2023/02/21 09:20:50;;;;;;;6.67;5.97;;;13.90;49.50;;;;;;5033415;28;20451;-51
2023/02/21 09:23:20;;;;;;;6.30;5.13;;;14.10;49.10;;;;;;5033667;28;20813;-49
2023/02/21 09:25:46;;;;;;;5.63;5.03;;;14.20;48.40;;;;;;5031936;28;20432;-49
2023/02/21 09:28:13;;;;;;;5.67;4.80;;;14.40;48.20;;;;;;5033435;28;20451;-52
2023/02/21 09:30:39;;;;;;;7.73;5.43;;;14.50;48.00;;;;;;5033018;28;20467;-49
2023/02/21 09:33:05;;;;;;;7.37;4.77;;;14.80;47.50;;;;;;5040538;28;20488;-48
2023/02/21 09:35:30;;;;;;;6.90;4.63;;;15.10;46.80;;;;;;5037551;28;20216;-49
2023/02/21 09:37:57;;;;;;;9.83;4.37;;;15.30;46.10;;;;;;5033421;28;20200;-49
2023/02/21 09:40:37;;;;;;;6.43;4.20;;;15.40;46.00;;;;;;5033072;28;20670;-48
2023/02/21 09:43:08;;;;;;;8.20;3.87;;;15.70;45.90;;;;;;5033283;28;20824;-48
2023/02/21 09:45:36;;;;;;;5.30;4.00;;;15.90;44.60;;;;;;5033101;28;20798;-49
2023/02/21 09:48:06;;;;;;;5.83;4.40;;;15.90;44.50;;;;;;5033072;28;20432;-49
2023/02/21 09:50:42;;;;;;;5.80;5.00;;;16.20;44.60;;;;;;5031518;28;21363;-49
2023/02/21 09:53:09;;;;;;;6.73;3.50;;;16.30;43.80;;;;;;5031352;28;20478;-49
2023/02/21 09:55:37;;;;;;;4.10;3.70;;;16.10;43.90;;;;;;5033185;28;20420;-49
2023/02/21 09:58:04;;;;;;;7.20;4.07;;;16.50;43.80;;;;;;5033219;28;20423;-49
2023/02/21 10:00:36;;;;;;;5.30;4.67;;;16.70;43.10;;;;;;5032777;28;20424;-49
2023/02/21 10:03:32;;;;;;;7.53;4.40;;;16.90;43.00;;;;;;5032777;28;20438;-48
2023/02/21 10:06:10;;;;;;;6.90;4.17;;;17.20;42.60;;;;;;5032727;28;20432;-50
2023/02/21 10:08:48;;;;;;;5.97;3.67;;;17.50;42.00;;;;;;5032279;28;20434;-50
2023/02/21 10:11:39;;;;;;;4.50;3.63;;;17.70;41.00;;;;;;5033030;28;20958;-49
2023/02/21 10:14:36;;;;;;;5.77;3.53;;;17.90;40.50;;;;;;5032714;28;20962;-50
2023/02/21 10:17:01;;;;;;;7.03;3.60;;;18.10;40.30;;;;;;5032519;28;20436;-49
2023/02/21 10:19:35;;;;;;;10.00;5.53;;;18.10;40.20;;;;;;5030410;28;20501;-49
2023/02/21 10:22:11;;;;;;;9.83;5.00;;;18.40;41.30;;;;;;5032639;28;20205;-51
2023/02/21 10:24:36;;;;;;;7.33;4.47;;;18.60;40.10;;;;;;5032423;28;20450;-50
2023/02/21 10:27:05;;;;;;;5.50;4.20;;;18.90;40.20;;;;;;5032576;28;20776;-50
2023/02/21 10:29:50;;;;;;;7.50;4.10;;;19.10;39.80;;;;;;5030843;28;20620;-49
2023/02/21 10:32:16;;;;;;;6.40;3.83;;;19.20;39.60;;;;;;5032561;28;20459;-51
2023/02/21 10:34:45;;;;;;;9.50;3.87;;;19.40;39.70;;;;;;5043340;28;20480;-49
2023/02/21 10:37:49;;;;;;;5.17;3.70;;;19.70;38.60;;;;;;5032210;28;20376;-50
2023/02/21 10:40:26;;;;;;;3.60;3.30;;;19.90;38.30;;;;;;5031819;28;20434;-50
2023/02/21 10:43:14;;;;;;;4.83;2.90;;;;;;;;;;5032426;28;20432;-50
2023/02/21 10:45:55;;;;;;;6.30;3.33;;;20.30;38.60;;;;;;5030830;28;20424;-49
2023/02/21 10:48:25;;;;;;;3.83;3.20;;;20.40;37.80;;;;;;5030913;28;20470;-51
2023/02/21 10:51:03;;;;;;;4.53;2.93;;;20.50;37.40;;;;;;5032016;28;20440;-50
2023/02/21 10:53:39;;;;;;;6.13;3.00;;;20.70;35.90;;;;;;5031775;28;20557;-49
2023/02/21 10:56:06;;;;;;;5.60;2.70;;;20.80;35.70;;;;;;5030583;28;20474;-49
2023/02/21 10:58:31;;;;;;;4.10;2.70;;;20.60;36.30;;;;;;5031403;28;20427;-48
2023/02/21 11:01:29;;;;;;;3.03;2.73;;;20.70;35.60;;;;;;5031650;28;20420;-49
2023/02/21 11:04:03;;;;;;;3.37;2.60;;;20.80;35.40;;;;;;5031308;28;20201;-50
2023/02/21 11:06:36;;;;;;;4.00;2.60;;;20.90;36.10;;;;;;5031675;28;20424;-49
2023/02/21 11:09:26;;;;;;;2.77;2.17;;;21.20;35.20;;;;;;5031402;28;20440;-50
2023/02/21 11:12:14;;;;;;;3.67;2.20;;;21.50;35.00;;;;;;5030360;28;20470;-52
2023/02/21 11:14:42;;;;;;;2.50;2.30;;;21.60;33.60;;;;;;5028479;28;20530;-50
2023/02/21 11:17:17;;;;;;;3.47;2.13;;;21.70;34.80;;;;;;5031386;28;20435;-51
2023/02/21 11:19:47;;;;;;;2.23;1.80;;;21.70;33.70;;;;;;5031378;28;20789;-50
2023/02/21 11:22:14;;;;;;;3.10;2.03;;;21.80;33.80;;;;;;5031296;28;20522;-49
2023/02/21 11:24:58;;;;;;;2.30;1.60;;;22.00;34.20;;;;;;5031532;28;20420;-49
2023/02/21 11:27:24;;;;;;;1.90;1.80;;;22.20;33.40;;;;;;5031362;28;20444;-50
2023/02/21 11:29:52;;;;;;;3.10;2.40;;;22.30;33.40;;;;;;5031031;28;20439;-50
2023/02/21 11:32:34;;;;;;;5.00;2.43;;;22.30;32.80;;;;;;5031678;28;20448;-49
2023/02/21 11:35:21;;;;;;;8.13;2.50;;;22.40;33.50;;;;;;5039358;28;20484;-49
2023/02/21 11:37:56;;;;;;;3.00;1.80;;;22.60;33.40;;;;;;5031273;28;20439;-49
2023/02/21 11:40:31;;;;;;;5.03;1.77;;;22.70;32.80;;;;;;5028923;28;20871;-49
2023/02/21 11:43:18;;;;;;;1.93;1.50;;;22.80;32.30;;;;;;5030883;28;20444;-50
2023/02/21 11:45:58;;;;;;;2.77;1.80;;;22.90;31.70;;;;;;5030847;28;20515;-49
2023/02/21 11:48:31;;;;;;;2.73;1.53;;;22.80;32.10;;;;;;5030655;28;20428;-50
2023/02/21 11:51:04;;;;;;;3.00;1.70;;;22.90;32.40;;;;;;5030979;28;20551;-50
2023/02/21 11:53:38;;;;;;;2.33;1.83;;;23.00;32.00;;;;;;5030998;28;20509;-49
2023/02/21 11:56:31;;;;;;;3.17;1.77;;;23.00;33.20;;;;;;5030888;28;20933;-50
2023/02/21 11:59:18;;;;;;;3.63;1.80;;;23.00;32.20;;;;;;5030631;28;21001;-49
2023/02/21 12:02:12;;;;;;;1.47;1.37;;;22.90;32.70;;;;;;5031058;28;20836;-49
2023/02/21 12:04:57;;;;;;;1.90;1.80;;;23.00;32.40;;;;;;5031074;28;20446;-50
2023/02/21 12:07:48;;;;;;;4.20;2.30;;;23.10;32.00;;;;;;5029786;28;20465;-49
2023/02/21 12:10:39;;;;;;;5.20;1.90;;;23.20;33.20;;;;;;5030430;28;20448;-50
2023/02/21 12:13:23;;;;;;;2.57;2.37;;;23.00;31.70;;;;;;5030819;28;20428;-53
2023/02/21 12:16:07;;;;;;;2.27;2.00;;;23.00;32.30;;;;;;5030962;28;20424;-50
2023/02/21 12:18:41;;;;;;;1.87;1.50;;;23.10;32.50;;;;;;5030381;28;20548;-53
2023/02/21 12:21:27;;;;;;;2.40;1.70;;;23.40;32.50;;;;;;5030886;28;20833;-50
2023/02/21 12:24:09;;;;;;;2.53;1.70;;;23.60;32.00;;;;;;5030839;28;20527;-51
2023/02/21 12:26:38;;;;;;;6.33;1.77;;;23.60;31.30;;;;;;5030780;28;20420;-49
2023/02/21 12:29:33;;;;;;;7.23;2.47;;;23.60;31.20;;;;;;5030137;28;20482;-49
2023/02/21 12:32:02;;;;;;;2.47;1.90;;;23.70;31.60;;;;;;5030552;28;20478;-51
2023/02/21 12:34:54;;;;;;;2.20;2.00;;;23.70;32.40;;;;;;5039934;28;20517;-50
2023/02/21 12:37:22;;;;;;;2.57;1.50;;;23.80;32.10;;;;;;5030380;28;20439;-49
2023/02/21 12:40:03;;;;;;;1.50;1.40;;;23.80;31.90;;;;;;5030062;28;20462;-52
2023/02/21 12:42:35;;;;;;;2.23;1.43;;;23.70;31.30;;;;;;5029248;28;20800;-52
2023/02/21 12:45:37;;;;;;;1.97;1.57;;;23.80;32.00;;;;;;5030281;28;20444;-53
2023/02/21 12:48:37;;;;;;;1.80;1.47;;;24.00;31.30;;;;;;5029140;28;20985;-54
2023/02/21 12:51:07;;;;;;;2.50;1.80;;;24.10;31.00;;;;;;5025976;28;20502;-52
2023/02/21 12:53:48;;;;;;;2.10;1.70;;;24.00;31.00;;;;;;5029683;28;20490;-52
2023/02/21 12:56:27;;;;;;;2.20;1.43;;;24.00;31.20;;;;;;5030228;28;20833;-53
2023/02/21 12:59:01;;;;;;;5.07;2.37;;;24.10;30.30;;;;;;5030017;28;20785;-53
2023/02/21 13:01:35;;;;;;;1.60;1.50;;;24.10;31.20;;;;;;5028466;28;20444;-54
2023/02/21 13:04:41;;;;;;;2.03;1.40;;;24.40;31.10;;;;;;5028878;28;20793;-53
2023/02/21 13:07:25;;;;;;;2.87;1.40;;;24.70;31.10;;;;;;5019165;28;20448;-53
2023/02/21 13:10:19;;;;;;;1.73;1.63;;;24.80;30.50;;;;;;5030015;28;20468;-53
2023/02/21 13:13:03;;;;;;;1.57;1.47;;;24.80;30.20;;;;;;5030473;28;20439;-53
2023/02/21 13:15:30;;;;;;;1.43;1.30;;;24.90;30.30;;;;;;5030271;28;20436;-52
2023/02/21 13:17:58;;;;;;;1.60;1.20;;;25.00;29.80;;;;;;5030275;28;20424;-52
2023/02/21 13:20:28;;;;;;;1.53;1.20;;;25.00;29.50;;;;;;5030238;28;20464;-52
2023/02/21 13:26:33;;;;;;;1.13;1.03;;;25.00;29.50;;;;;;5029752;28;20455;-52
2023/02/21 13:28:59;;;;;;;2.70;1.30;;;25.20;29.60;;;;;;5029850;28;20535;-52
2023/02/21 13:31:37;;;;;;;1.40;1.30;;;25.20;29.40;;;;;;5030178;28;20554;-52
2023/02/21 13:34:07;;;;;;;2.03;1.47;;;25.10;29.70;;;;;;5041509;28;20700;-49
2023/02/21 13:36:43;;;;;;;1.43;1.20;;;25.20;29.70;;;;;;5028780;28;20446;-53
2023/02/21 13:39:30;;;;;;;1.53;1.00;;;25.30;29.40;;;;;;5028315;28;20435;-51
2023/02/21 13:42:02;;;;;;;1.13;1.03;;;25.40;29.40;;;;;;5029838;28;20987;-52
2023/02/21 13:44:35;;;;;;;1.20;1.10;;;25.50;29.40;;;;;;5030235;28;20420;-53
2023/02/21 13:47:16;;;;;;;1.47;0.93;;;25.50;29.40;;;;;;5029916;28;20979;-51
2023/02/21 13:49:55;;;;;;;1.70;1.00;;;25.70;28.90;;;;;;5029529;28;20472;-52
2023/02/21 13:52:21;;;;;;;2.27;1.33;;;25.70;29.10;;;;;;5030279;28;20439;-50
2023/02/21 13:55:14;;;;;;;5.50;1.30;;;25.70;29.10;;;;;;5027993;28;20491;-51
2023/02/21 13:57:55;;;;;;;1.73;0.87;;;25.70;29.10;;;;;;5029890;28;20197;-52
2023/02/21 14:00:23;;;;;;;1.10;1.03;;;25.80;28.90;;;;;;5029675;28;20440;-52
2023/02/21 14:03:19;;;;;;;1.13;1.03;;;25.80;28.90;;;;;;5030013;28;20464;-49
2023/02/21 14:08:28;;;;;;;1.97;0.63;;;26.10;28.80;;;;;;5032999;28;20428;-51
2023/02/21 14:10:56;;;;;;;1.30;1.20;;;25.90;28.80;;;;;;5033402;28;20448;-49
2023/02/21 14:13:35;;;;;;;1.50;0.97;;;26.10;28.70;;;;;;5033156;28;20483;-53
2023/02/21 14:16:07;;;;;;;1.17;1.00;;;26.10;28.70;;;;;;5033281;28;20435;-53
2023/02/21 14:18:38;;;;;;;1.67;0.93;;;26.10;28.40;;;;;;5032802;28;20483;-51
2023/02/21 14:21:33;;;;;;;2.50;1.20;;;25.90;28.40;;;;;;5031438;28;20534;-50
2023/02/21 14:24:07;;;;;;;3.53;1.10;;;26.10;28.90;;;;;;5033067;28;20424;-52
2023/02/21 14:26:41;;;;;;;4.63;2.50;;;26.00;28.80;;;;;;5033413;28;20498;-51
2023/02/21 14:29:07;;;;;;;5.07;1.40;;;26.10;28.70;;;;;;5032537;28;20950;-50
2023/02/21 14:31:55;;;;;;;1.47;1.17;;;26.10;28.10;;;;;;5032919;28;20464;-51
2023/02/21 14:34:45;;;;;;;1.77;1.10;;;26.00;28.00;;;;;;5043631;28;20352;-51
2023/02/21 14:37:29;;;;;;;1.90;1.50;;;26.00;28.70;;;;;;5032760;28;20513;-52
2023/02/21 14:40:13;;;;;;;1.60;0.93;;;26.10;29.00;;;;;;5032411;28;20848;-51
2023/02/21 14:43:09;;;;;;;3.30;1.23;;;26.20;29.20;;;;;;5032781;28;20802;-50
2023/02/21 14:46:08;;;;;;;1.37;1.10;;;26.20;29.20;;;;;;5032674;28;20970;-50
2023/02/21 14:48:40;;;;;;;2.13;0.93;;;26.30;28.90;;;;;;5030740;28;20523;-50
2023/02/21 14:51:49;;;;;;;1.20;1.10;;;26.30;28.90;;;;;;5032951;28;20519;-49
2023/02/21 14:54:28;;;;;;;2.73;1.00;;;26.30;29.20;;;;;;5032381;28;20487;-49
2023/02/21 14:57:09;;;;;;;1.10;0.83;;;26.30;29.00;;;;;;5032554;28;20543;-52
2023/02/21 14:59:59;;;;;;;0.90;0.90;;;26.30;28.80;;;;;;5032010;28;20447;-49
2023/02/21 15:02:34;;;;;;;1.63;1.23;;;26.40;29.20;;;;;;5032434;28;20844;-53
2023/02/21 15:05:30;;;;;;;1.80;1.00;;;26.40;28.80;;;;;;5032234;28;20420;-51
2023/02/21 15:08:11;;;;;;;2.40;0.90;;;26.40;28.80;;;;;;5023983;28;20448;-53
2023/02/21 15:10:41;;;;;;;1.57;0.90;;;26.40;28.80;;;;;;5032556;28;20519;-50
2023/02/21 15:13:20;;;;;;;1.00;1.00;;;26.30;28.60;;;;;;5031952;28;20428;-50
2023/02/21 15:15:46;;;;;;;2.10;0.97;;;26.30;28.70;;;;;;5029710;28;20459;-52
2023/02/21 15:18:25;;;;;;;1.37;1.00;;;26.30;28.70;;;;;;5031362;28;20475;-51
2023/02/21 15:21:15;;;;;;;0.80;0.80;;;26.20;28.30;;;;;;5032381;28;20255;-51
2023/02/21 15:23:42;;;;;;;1.27;1.07;;;26.20;28.40;;;;;;5031935;28;20830;-51
2023/02/21 15:26:30;;;;;;;1.87;1.60;;;26.20;28.40;;;;;;5031564;28;20435;-50
2023/02/21 15:29:08;;;;;;;2.07;1.87;;;26.20;29.30;;;;;;5031569;28;20967;-50
2023/02/21 15:31:53;;;;;;;3.03;2.33;;;26.20;29.90;;;;;;5031526;28;20495;-49
2023/02/21 15:34:21;;;;;;;2.70;1.80;;;26.20;30.00;;;;;;5042805;28;20955;-49
2023/02/21 15:36:53;;;;;;;2.97;2.00;;;26.00;30.20;;;;;;5031624;28;20440;-49
2023/02/21 15:39:29;;;;;;;2.93;1.80;;;26.00;30.50;;;;;;5031475;28;20436;-50
2023/02/21 15:41:58;;;;;;;2.93;1.87;;;25.70;31.00;;;;;;5029845;28;20427;-52